createdAt,value
2017-05-01T00:00:02.672Z,7.57
2017-05-01T00:00:06.907Z,7.56
2017-05-01T00:00:11.224Z,7.56
2017-05-01T00:00:15.545Z,7.56
2017-05-01T00:00:19.985Z,7.56
2017-05-01T00:00:24.286Z,7.56
2017-05-01T00:00:28.598Z,7.56
2017-05-01T00:00:33.023Z,7.55
2017-05-01T00:00:37.337Z,7.55
2017-05-01T00:00:41.798Z,7.55
2017-05-01T00:00:45.988Z,7.55
2017-05-01T00:00:50.417Z,7.55
2017-05-01T00:00:54.889Z,7.55
2017-05-01T00:00:59.312Z,7.55
2017-05-01T00:01:03.732Z,7.55
2017-05-01T00:01:08.166Z,7.55
2017-05-01T00:01:12.518Z,7.54
2017-05-01T00:01:16.829Z,7.54
2017-05-01T00:01:21.255Z,7.54
2017-05-01T00:01:25.680Z,7.55
2017-05-01T00:01:30.115Z,7.54
2017-05-01T00:01:34.538Z,7.54
2017-05-01T00:01:38.964Z,7.55
2017-05-01T00:01:43.392Z,7.54
2017-05-01T00:01:47.821Z,7.54
2017-05-01T00:01:52.246Z,7.54
2017-05-01T00:01:56.674Z,7.54
2017-05-01T00:02:00.865Z,7.54
2017-05-01T00:02:05.441Z,7.53
2017-05-01T00:02:09.628Z,7.53
2017-05-01T00:02:13.820Z,7.53
2017-05-01T00:02:18.253Z,7.54
2017-05-01T00:02:22.683Z,7.53
2017-05-01T00:02:27.107Z,7.54
2017-05-01T00:02:31.535Z,7.53
2017-05-01T00:02:35.962Z,7.53
2017-05-01T00:02:40.394Z,7.53
2017-05-01T00:02:44.821Z,7.53
2017-05-01T00:02:49.242Z,7.53
2017-05-01T00:02:53.677Z,7.53
2017-05-01T00:02:58.104Z,7.54
2017-05-01T00:03:02.418Z,7.52
2017-05-01T00:03:06.877Z,7.53
2017-05-01T00:03:11.196Z,7.53
2017-05-01T00:03:15.402Z,7.53
2017-05-01T00:03:19.827Z,7.53
2017-05-01T00:03:24.256Z,7.52
2017-05-01T00:03:28.697Z,7.53
2017-05-01T00:03:33.139Z,7.53
2017-05-01T00:03:37.459Z,7.53
2017-05-01T00:03:41.773Z,7.52
2017-05-01T00:03:46.250Z,7.52
2017-05-01T00:03:50.569Z,7.51
2017-05-01T00:03:54.999Z,7.52
2017-05-01T00:03:59.437Z,7.52
2017-05-01T00:04:03.752Z,7.51
2017-05-01T00:04:08.177Z,7.52
2017-05-01T00:04:12.258Z,7.5
2017-05-01T00:04:16.693Z,7.5
2017-05-01T00:04:21.125Z,7.51
2017-05-01T00:04:25.458Z,7.51
2017-05-01T00:04:29.534Z,7.51
2017-05-01T00:04:33.966Z,7.51
2017-05-01T00:04:38.396Z,7.51
2017-05-01T00:04:42.830Z,7.5
2017-05-01T00:04:47.260Z,7.5
2017-05-01T00:04:51.691Z,7.5
2017-05-01T00:04:56.156Z,7.5
2017-05-01T00:05:00.588Z,7.5
2017-05-01T00:05:04.894Z,7.49
2017-05-01T00:05:09.212Z,7.5
2017-05-01T00:05:13.641Z,7.49
2017-05-01T00:05:18.065Z,7.49
2017-05-01T00:05:22.489Z,7.49
2017-05-01T00:05:26.911Z,7.49
2017-05-01T00:05:31.108Z,7.5
2017-05-01T00:05:35.542Z,7.49
2017-05-01T00:05:39.851Z,7.49
2017-05-01T00:05:44.273Z,7.49
2017-05-01T00:05:48.705Z,7.49
2017-05-01T00:05:53.129Z,7.49
2017-05-01T00:05:57.557Z,7.49
2017-05-01T00:06:02.006Z,7.49
2017-05-01T00:06:06.207Z,7.49
2017-05-01T00:06:10.512Z,7.48
2017-05-01T00:06:14.819Z,7.48
2017-05-01T00:06:19.132Z,7.48
2017-05-01T00:06:23.334Z,7.48
2017-05-01T00:06:27.760Z,7.47
2017-05-01T00:06:32.184Z,7.47
2017-05-01T00:06:36.500Z,7.47
2017-05-01T00:06:40.943Z,7.47
2017-05-01T00:06:45.372Z,7.47
2017-05-01T00:06:49.800Z,7.47
2017-05-01T00:06:54.231Z,7.46
2017-05-01T00:06:58.653Z,7.47
2017-05-01T00:07:03.179Z,7.48
2017-05-01T00:07:07.601Z,7.47
2017-05-01T00:07:11.918Z,7.47
2017-05-01T00:07:15.990Z,7.46
2017-05-01T00:07:20.346Z,7.47
2017-05-01T00:07:24.661Z,7.46
2017-05-01T00:07:29.092Z,7.47
2017-05-01T00:07:33.519Z,7.46
2017-05-01T00:07:37.834Z,7.46
2017-05-01T00:07:42.265Z,7.45
2017-05-01T00:07:46.710Z,7.46
2017-05-01T00:07:51.143Z,7.45
2017-05-01T00:07:55.562Z,7.45
2017-05-01T00:07:59.999Z,7.44
2017-05-01T00:08:04.476Z,7.45
2017-05-01T00:08:08.785Z,7.45
2017-05-01T00:08:13.104Z,7.45
2017-05-01T00:08:17.297Z,7.44
2017-05-01T00:08:21.746Z,7.45
2017-05-01T00:08:26.173Z,7.44
2017-05-01T00:08:30.610Z,7.44
2017-05-01T00:08:35.046Z,7.44
2017-05-01T00:08:39.487Z,7.44
2017-05-01T00:08:43.915Z,7.44
2017-05-01T00:08:48.357Z,7.44
2017-05-01T00:08:52.808Z,7.44
2017-05-01T00:08:57.254Z,7.44
2017-05-01T00:09:01.677Z,7.44
2017-05-01T00:09:06.109Z,7.43
2017-05-01T00:09:10.536Z,7.43
2017-05-01T00:09:14.736Z,7.43
2017-05-01T00:09:19.162Z,7.44
2017-05-01T00:09:23.583Z,7.42
2017-05-01T00:09:28.022Z,7.43
2017-05-01T00:09:32.464Z,7.43
2017-05-01T00:09:36.929Z,7.42
2017-05-01T00:09:41.362Z,7.43
2017-05-01T00:09:45.790Z,7.43
2017-05-01T00:09:50.226Z,7.42
2017-05-01T00:09:54.663Z,7.42
2017-05-01T00:09:58.976Z,7.41
2017-05-01T00:10:03.405Z,7.42
2017-05-01T00:10:07.835Z,7.42
2017-05-01T00:10:12.146Z,7.43
2017-05-01T00:10:16.576Z,7.41
2017-05-01T00:10:20.887Z,7.42
2017-05-01T00:10:25.342Z,7.42
2017-05-01T00:10:29.775Z,7.41
2017-05-01T00:10:34.196Z,7.42
2017-05-01T00:10:38.623Z,7.41
2017-05-01T00:10:42.979Z,7.42
2017-05-01T00:10:47.406Z,7.41
2017-05-01T00:10:51.713Z,7.42
2017-05-01T00:10:56.144Z,7.41
2017-05-01T00:11:00.262Z,7.41
2017-05-01T00:11:04.789Z,7.41
2017-05-01T00:11:09.094Z,7.41
2017-05-01T00:11:13.403Z,7.41
2017-05-01T00:11:17.845Z,7.41
2017-05-01T00:11:22.293Z,7.4
2017-05-01T00:11:26.599Z,7.41
2017-05-01T00:11:31.027Z,7.41
2017-05-01T00:11:35.344Z,7.41
2017-05-01T00:11:39.654Z,7.41
2017-05-01T00:11:43.957Z,7.4
2017-05-01T00:11:48.389Z,7.4
2017-05-01T00:11:52.827Z,7.39
2017-05-01T00:11:57.142Z,7.4
2017-05-01T00:12:01.565Z,7.4
2017-05-01T00:12:05.991Z,7.41
2017-05-01T00:12:10.188Z,7.4
2017-05-01T00:12:14.651Z,7.4
2017-05-01T00:12:19.081Z,7.4
2017-05-01T00:12:23.505Z,7.39
2017-05-01T00:12:27.823Z,7.4
2017-05-01T00:12:32.284Z,7.4
2017-05-01T00:12:36.596Z,7.4
2017-05-01T00:12:40.902Z,7.39
2017-05-01T00:12:45.329Z,7.39
2017-05-01T00:12:49.815Z,7.39
2017-05-01T00:12:54.257Z,7.4
2017-05-01T00:12:58.581Z,7.38
2017-05-01T00:13:03.012Z,7.39
2017-05-01T00:13:07.481Z,7.39
2017-05-01T00:13:11.687Z,7.38
2017-05-01T00:13:15.884Z,7.39
2017-05-01T00:13:20.197Z,7.38
2017-05-01T00:13:24.674Z,7.38
2017-05-01T00:13:28.985Z,7.38
2017-05-01T00:13:33.413Z,7.39
2017-05-01T00:13:37.837Z,7.38
2017-05-01T00:13:42.270Z,7.39
2017-05-01T00:13:46.701Z,7.38
2017-05-01T00:13:51.125Z,7.38
2017-05-01T00:13:55.561Z,7.38
2017-05-01T00:13:59.995Z,7.38
2017-05-01T00:14:04.728Z,7.38
2017-05-01T00:14:09.040Z,7.38
2017-05-01T00:14:13.248Z,7.38
2017-05-01T00:14:17.726Z,7.38
2017-05-01T00:14:22.158Z,7.38
2017-05-01T00:14:26.592Z,7.38
2017-05-01T00:14:31.040Z,7.38
2017-05-01T00:14:35.473Z,7.37
2017-05-01T00:14:39.897Z,7.37
2017-05-01T00:14:44.323Z,7.37
2017-05-01T00:14:48.756Z,7.37
2017-05-01T00:14:53.182Z,7.37
2017-05-01T00:14:57.503Z,7.38
2017-05-01T00:15:01.929Z,7.37
2017-05-01T00:15:06.280Z,7.37
2017-05-01T00:15:10.591Z,7.37
2017-05-01T00:15:14.780Z,7.37
2017-05-01T00:15:19.209Z,7.37
2017-05-01T00:15:23.644Z,7.36
2017-05-01T00:15:28.066Z,7.36
2017-05-01T00:15:32.489Z,7.36
2017-05-01T00:15:36.916Z,7.37
2017-05-01T00:15:41.369Z,7.36
2017-05-01T00:15:45.796Z,7.36
2017-05-01T00:15:50.222Z,7.36
2017-05-01T00:15:54.537Z,7.37
2017-05-01T00:15:58.972Z,7.36
2017-05-01T00:16:03.651Z,7.37
2017-05-01T00:16:07.839Z,7.37
2017-05-01T00:16:12.152Z,7.36
2017-05-01T00:16:16.585Z,7.36
2017-05-01T00:16:21.018Z,7.37
2017-05-01T00:16:25.444Z,7.36
2017-05-01T00:16:29.755Z,7.36
2017-05-01T00:16:34.225Z,7.35
2017-05-01T00:16:38.665Z,7.35
2017-05-01T00:16:42.975Z,7.35
2017-05-01T00:16:47.168Z,7.35
2017-05-01T00:16:51.598Z,7.36
2017-05-01T00:16:56.025Z,7.35
2017-05-01T00:17:00.452Z,7.36
2017-05-01T00:17:04.758Z,7.35
2017-05-01T00:17:09.070Z,7.35
2017-05-01T00:17:13.377Z,7.35
2017-05-01T00:17:17.815Z,7.36
2017-05-01T00:17:22.291Z,7.36
2017-05-01T00:17:26.718Z,7.35
2017-05-01T00:17:31.147Z,7.36
2017-05-01T00:17:35.584Z,7.35
2017-05-01T00:17:39.909Z,7.35
2017-05-01T00:17:44.221Z,7.35
2017-05-01T00:17:48.417Z,7.35
2017-05-01T00:17:52.853Z,7.35
2017-05-01T00:17:57.284Z,7.35
2017-05-01T00:18:02.015Z,7.34
2017-05-01T00:18:06.439Z,7.34
2017-05-01T00:18:10.753Z,7.34
2017-05-01T00:18:15.068Z,7.34
2017-05-01T00:18:19.386Z,7.34
2017-05-01T00:18:23.809Z,7.34
2017-05-01T00:18:28.244Z,7.34
2017-05-01T00:18:32.674Z,7.34
2017-05-01T00:18:37.109Z,7.33
2017-05-01T00:18:41.312Z,7.33
2017-05-01T00:18:45.646Z,7.33
2017-05-01T00:18:49.963Z,7.33
2017-05-01T00:18:54.400Z,7.32
2017-05-01T00:18:58.844Z,7.33
2017-05-01T00:19:03.320Z,7.32
2017-05-01T00:19:07.762Z,7.32
2017-05-01T00:19:12.185Z,7.32
2017-05-01T00:19:16.377Z,7.32
2017-05-01T00:19:20.835Z,7.32
2017-05-01T00:19:25.265Z,7.32
2017-05-01T00:19:29.691Z,7.31
2017-05-01T00:19:34.122Z,7.31
2017-05-01T00:19:38.551Z,7.31
2017-05-01T00:19:42.976Z,7.31
2017-05-01T00:19:47.402Z,7.31
2017-05-01T00:19:51.828Z,7.31
2017-05-01T00:19:56.146Z,7.31
2017-05-01T00:20:00.579Z,7.3
2017-05-01T00:20:04.894Z,7.31
2017-05-01T00:20:09.319Z,7.3
2017-05-01T00:20:13.519Z,7.3
2017-05-01T00:20:17.831Z,7.29
2017-05-01T00:20:22.254Z,7.29
2017-05-01T00:20:26.684Z,7.29
2017-05-01T00:20:31.118Z,7.3
2017-05-01T00:20:35.546Z,7.29
2017-05-01T00:20:39.857Z,7.29
2017-05-01T00:20:44.179Z,7.29
2017-05-01T00:20:48.492Z,7.29
2017-05-01T00:20:52.924Z,7.29
2017-05-01T00:20:57.347Z,7.29
2017-05-01T00:21:01.878Z,7.29
2017-05-01T00:21:06.312Z,7.28
2017-05-01T00:21:10.620Z,7.28
2017-05-01T00:21:15.051Z,7.27
2017-05-01T00:21:19.483Z,7.27
2017-05-01T00:21:23.922Z,7.27
2017-05-01T00:21:28.344Z,7.26
2017-05-01T00:21:32.531Z,7.27
2017-05-01T00:21:36.958Z,7.27
2017-05-01T00:21:41.146Z,7.26
2017-05-01T00:21:45.578Z,7.26
2017-05-01T00:21:50.004Z,7.26
2017-05-01T00:21:54.434Z,7.27
2017-05-01T00:21:58.859Z,7.26
2017-05-01T00:22:03.169Z,7.26
2017-05-01T00:22:07.599Z,7.26
2017-05-01T00:22:12.038Z,7.26
2017-05-01T00:22:16.106Z,7.27
2017-05-01T00:22:20.637Z,7.26
2017-05-01T00:22:25.078Z,7.26
2017-05-01T00:22:29.514Z,7.25
2017-05-01T00:22:33.948Z,7.26
2017-05-01T00:22:38.366Z,7.25
2017-05-01T00:22:42.790Z,7.25
2017-05-01T00:22:47.221Z,7.25
2017-05-01T00:22:51.663Z,7.25
2017-05-01T00:22:56.102Z,7.24
2017-05-01T00:23:00.527Z,7.25
2017-05-01T00:23:04.963Z,7.25
2017-05-01T00:23:09.402Z,7.24
2017-05-01T00:23:13.601Z,7.24
2017-05-01T00:23:17.956Z,7.25
2017-05-01T00:23:22.401Z,7.25
2017-05-01T00:23:26.840Z,7.24
2017-05-01T00:23:31.276Z,7.25
2017-05-01T00:23:35.718Z,7.24
2017-05-01T00:23:40.142Z,7.24
2017-05-01T00:23:44.458Z,7.25
2017-05-01T00:23:48.897Z,7.24
2017-05-01T00:23:53.386Z,7.24
2017-05-01T00:23:57.828Z,7.24
2017-05-01T00:24:02.254Z,7.24
2017-05-01T00:24:06.692Z,7.23
2017-05-01T00:24:11.049Z,7.24
2017-05-01T00:24:15.359Z,7.23
2017-05-01T00:24:19.791Z,7.23
2017-05-01T00:24:24.095Z,7.24
2017-05-01T00:24:28.426Z,7.24
2017-05-01T00:24:32.853Z,7.23
2017-05-01T00:24:37.280Z,7.24
2017-05-01T00:24:41.712Z,7.24
2017-05-01T00:24:46.145Z,7.23
2017-05-01T00:24:50.571Z,7.23
2017-05-01T00:24:55.003Z,7.24
2017-05-01T00:24:59.444Z,7.23
2017-05-01T00:25:04.111Z,7.23
2017-05-01T00:25:08.540Z,7.23
2017-05-01T00:25:12.972Z,7.23
2017-05-01T00:25:17.282Z,7.22
2017-05-01T00:25:21.715Z,7.22
2017-05-01T00:25:26.142Z,7.23
2017-05-01T00:25:30.564Z,7.23
2017-05-01T00:25:34.990Z,7.22
2017-05-01T00:25:39.455Z,7.22
2017-05-01T00:25:43.885Z,7.22
2017-05-01T00:25:48.313Z,7.22
2017-05-01T00:25:52.749Z,7.23
2017-05-01T00:25:57.176Z,7.23
2017-05-01T00:26:01.598Z,7.22
2017-05-01T00:26:06.050Z,7.22
2017-05-01T00:26:10.364Z,7.22
2017-05-01T00:26:14.559Z,7.23
2017-05-01T00:26:18.873Z,7.23
2017-05-01T00:26:23.192Z,7.22
2017-05-01T00:26:27.618Z,7.22
2017-05-01T00:26:32.056Z,7.22
2017-05-01T00:26:36.488Z,7.22
2017-05-01T00:26:40.920Z,7.22
2017-05-01T00:26:45.351Z,7.23
2017-05-01T00:26:49.782Z,7.22
2017-05-01T00:26:54.215Z,7.22
2017-05-01T00:26:58.526Z,7.21
2017-05-01T00:27:03.103Z,7.23
2017-05-01T00:27:07.534Z,7.22
2017-05-01T00:27:11.850Z,7.22
2017-05-01T00:27:16.047Z,7.22
2017-05-01T00:27:20.480Z,7.22
2017-05-01T00:27:24.798Z,7.22
2017-05-01T00:27:29.229Z,7.22
2017-05-01T00:27:33.653Z,7.22
2017-05-01T00:27:37.967Z,7.22
2017-05-01T00:27:42.397Z,7.22
2017-05-01T00:27:46.713Z,7.22
2017-05-01T00:27:51.143Z,7.22
2017-05-01T00:27:55.572Z,7.22
2017-05-01T00:28:00.009Z,7.22
2017-05-01T00:28:04.206Z,7.22
2017-05-01T00:28:08.551Z,7.22
2017-05-01T00:28:12.863Z,7.24
2017-05-01T00:28:17.187Z,7.23
2017-05-01T00:28:21.501Z,7.22
2017-05-01T00:28:25.820Z,7.22
2017-05-01T00:28:30.248Z,7.22
2017-05-01T00:28:34.569Z,7.22
2017-05-01T00:28:39.012Z,7.22
2017-05-01T00:28:43.443Z,7.22
2017-05-01T00:28:47.876Z,7.22
2017-05-01T00:28:52.306Z,7.23
2017-05-01T00:28:56.745Z,7.23
2017-05-01T00:29:01.174Z,7.23
2017-05-01T00:29:05.631Z,7.23
2017-05-01T00:29:10.058Z,7.23
2017-05-01T00:29:14.378Z,7.23
2017-05-01T00:29:18.844Z,7.23
2017-05-01T00:29:23.152Z,7.23
2017-05-01T00:29:27.591Z,7.23
2017-05-01T00:29:32.021Z,7.23
2017-05-01T00:29:36.454Z,7.23
2017-05-01T00:29:40.766Z,7.23
2017-05-01T00:29:45.083Z,7.23
2017-05-01T00:29:49.512Z,7.23
2017-05-01T00:29:53.946Z,7.23
2017-05-01T00:29:58.378Z,7.23
2017-05-01T00:30:02.806Z,7.23
2017-05-01T00:30:07.003Z,7.22
2017-05-01T00:30:11.313Z,7.23
2017-05-01T00:30:15.503Z,7.23
2017-05-01T00:30:19.926Z,7.23
2017-05-01T00:30:24.234Z,7.22
2017-05-01T00:30:28.664Z,7.23
2017-05-01T00:30:33.089Z,7.24
2017-05-01T00:30:37.516Z,7.23
2017-05-01T00:30:41.838Z,7.23
2017-05-01T00:30:46.264Z,7.24
2017-05-01T00:30:50.575Z,7.23
2017-05-01T00:30:54.774Z,7.23
2017-05-01T00:30:59.215Z,7.23
2017-05-01T00:31:03.737Z,7.23
2017-05-01T00:31:08.158Z,7.23
2017-05-01T00:31:12.471Z,7.24
2017-05-01T00:31:16.667Z,7.23
2017-05-01T00:31:21.141Z,7.23
2017-05-01T00:31:25.333Z,7.24
2017-05-01T00:31:29.766Z,7.24
2017-05-01T00:31:34.194Z,7.23
2017-05-01T00:31:38.500Z,7.23
2017-05-01T00:31:42.931Z,7.23
2017-05-01T00:31:47.366Z,7.23
2017-05-01T00:31:51.796Z,7.23
2017-05-01T00:31:56.109Z,7.24
2017-05-01T00:32:00.430Z,7.23
2017-05-01T00:32:04.743Z,7.24
2017-05-01T00:32:09.174Z,7.23
2017-05-01T00:32:13.481Z,7.23
2017-05-01T00:32:17.794Z,7.23
2017-05-01T00:32:22.266Z,7.24
2017-05-01T00:32:26.571Z,7.24
2017-05-01T00:32:31.001Z,7.23
2017-05-01T00:32:35.435Z,7.23
2017-05-01T00:32:39.753Z,7.23
2017-05-01T00:32:44.074Z,7.24
2017-05-01T00:32:48.396Z,7.24
2017-05-01T00:32:52.829Z,7.25
2017-05-01T00:32:57.031Z,7.24
2017-05-01T00:33:01.512Z,7.24
2017-05-01T00:33:06.102Z,7.24
2017-05-01T00:33:10.532Z,7.23
2017-05-01T00:33:14.742Z,7.24
2017-05-01T00:33:19.173Z,7.24
2017-05-01T00:33:23.606Z,7.24
2017-05-01T00:33:28.039Z,7.24
2017-05-01T00:33:32.475Z,7.24
2017-05-01T00:33:36.906Z,7.24
2017-05-01T00:33:41.373Z,7.24
2017-05-01T00:33:45.802Z,7.24
2017-05-01T00:33:49.882Z,7.24
2017-05-01T00:33:54.321Z,7.23
2017-05-01T00:33:58.759Z,7.24
2017-05-01T00:34:03.490Z,7.23
2017-05-01T00:34:07.800Z,7.24
2017-05-01T00:34:12.120Z,7.24
2017-05-01T00:34:16.435Z,7.24
2017-05-01T00:34:20.868Z,7.23
2017-05-01T00:34:25.303Z,7.24
2017-05-01T00:34:29.737Z,7.24
2017-05-01T00:34:34.169Z,7.23
2017-05-01T00:34:38.595Z,7.24
2017-05-01T00:34:43.025Z,7.23
2017-05-01T00:34:47.464Z,7.23
2017-05-01T00:34:51.885Z,7.24
2017-05-01T00:34:56.322Z,7.24
2017-05-01T00:35:00.647Z,7.23
2017-05-01T00:35:04.958Z,7.23
2017-05-01T00:35:09.419Z,7.24
2017-05-01T00:35:13.605Z,7.23
2017-05-01T00:35:18.045Z,7.23
2017-05-01T00:35:22.477Z,7.24
2017-05-01T00:35:26.912Z,7.24
2017-05-01T00:35:31.114Z,7.23
2017-05-01T00:35:35.553Z,7.24
2017-05-01T00:35:39.978Z,7.24
2017-05-01T00:35:44.283Z,7.23
2017-05-01T00:35:48.725Z,7.23
2017-05-01T00:35:53.154Z,7.24
2017-05-01T00:35:57.585Z,7.23
2017-05-01T00:36:01.892Z,7.23
2017-05-01T00:36:06.252Z,7.23
2017-05-01T00:36:10.682Z,7.23
2017-05-01T00:36:14.874Z,7.23
2017-05-01T00:36:19.310Z,7.23
2017-05-01T00:36:23.739Z,7.22
2017-05-01T00:36:28.172Z,7.22
2017-05-01T00:36:32.605Z,7.22
2017-05-01T00:36:36.914Z,7.23
2017-05-01T00:36:41.228Z,7.22
2017-05-01T00:36:45.654Z,7.22
2017-05-01T00:36:50.085Z,7.22
2017-05-01T00:36:54.514Z,7.22
2017-05-01T00:36:58.943Z,7.23
2017-05-01T00:37:03.473Z,7.22
2017-05-01T00:37:07.788Z,7.22
2017-05-01T00:37:11.977Z,7.22
2017-05-01T00:37:16.411Z,7.22
2017-05-01T00:37:20.845Z,7.23
2017-05-01T00:37:25.322Z,7.22
2017-05-01T00:37:29.765Z,7.21
2017-05-01T00:37:34.190Z,7.22
2017-05-01T00:37:38.392Z,7.22
2017-05-01T00:37:42.830Z,7.21
2017-05-01T00:37:47.271Z,7.22
2017-05-01T00:37:51.699Z,7.21
2017-05-01T00:37:56.016Z,7.22
2017-05-01T00:38:00.439Z,7.22
2017-05-01T00:38:04.752Z,7.21
2017-05-01T00:38:09.063Z,7.21
2017-05-01T00:38:13.387Z,7.21
2017-05-01T00:38:17.733Z,7.21
2017-05-01T00:38:22.163Z,7.21
2017-05-01T00:38:26.586Z,7.2
2017-05-01T00:38:30.915Z,7.2
2017-05-01T00:38:35.273Z,7.21
2017-05-01T00:38:39.592Z,7.2
2017-05-01T00:38:43.904Z,7.19
2017-05-01T00:38:48.345Z,7.19
2017-05-01T00:38:52.775Z,7.2
2017-05-01T00:38:57.210Z,7.19
2017-05-01T00:39:01.654Z,7.19
2017-05-01T00:39:06.339Z,7.19
2017-05-01T00:39:10.657Z,7.19
2017-05-01T00:39:14.979Z,7.19
2017-05-01T00:39:19.447Z,7.19
2017-05-01T00:39:23.876Z,7.19
2017-05-01T00:39:28.306Z,7.18
2017-05-01T00:39:32.615Z,7.18
2017-05-01T00:39:36.805Z,7.18
2017-05-01T00:39:41.290Z,7.18
2017-05-01T00:39:45.717Z,7.18
2017-05-01T00:39:50.143Z,7.17
2017-05-01T00:39:54.582Z,7.18
2017-05-01T00:39:59.033Z,7.17
2017-05-01T00:40:03.590Z,7.18
2017-05-01T00:40:07.896Z,7.17
2017-05-01T00:40:12.324Z,7.16
2017-05-01T00:40:16.636Z,7.16
2017-05-01T00:40:20.941Z,7.16
2017-05-01T00:40:25.249Z,7.16
2017-05-01T00:40:29.674Z,7.16
2017-05-01T00:40:34.105Z,7.16
2017-05-01T00:40:38.530Z,7.15
2017-05-01T00:40:42.722Z,7.15
2017-05-01T00:40:47.155Z,7.14
2017-05-01T00:40:51.584Z,7.14
2017-05-01T00:40:56.012Z,7.15
2017-05-01T00:41:00.444Z,7.14
2017-05-01T00:41:04.739Z,7.14
2017-05-01T00:41:09.057Z,7.13
2017-05-01T00:41:13.495Z,7.14
2017-05-01T00:41:17.924Z,7.14
2017-05-01T00:41:22.345Z,7.14
2017-05-01T00:41:26.539Z,7.14
2017-05-01T00:41:30.964Z,7.14
2017-05-01T00:41:35.268Z,7.13
2017-05-01T00:41:39.702Z,7.13
2017-05-01T00:41:44.133Z,7.13
2017-05-01T00:41:48.440Z,7.13
2017-05-01T00:41:52.866Z,7.12
2017-05-01T00:41:57.290Z,7.13
2017-05-01T00:42:01.720Z,7.12
2017-05-01T00:42:06.149Z,7.12
2017-05-01T00:42:10.575Z,7.12
2017-05-01T00:42:14.894Z,7.12
2017-05-01T00:42:19.338Z,7.12
2017-05-01T00:42:23.647Z,7.12
2017-05-01T00:42:27.964Z,7.12
2017-05-01T00:42:32.390Z,7.12
2017-05-01T00:42:36.716Z,7.11
2017-05-01T00:42:41.144Z,7.11
2017-05-01T00:42:45.462Z,7.11
2017-05-01T00:42:49.895Z,7.11
2017-05-01T00:42:54.329Z,7.12
2017-05-01T00:42:58.530Z,7.11
2017-05-01T00:43:03.312Z,7.11
2017-05-01T00:43:07.740Z,7.11
2017-05-01T00:43:12.170Z,7.11
2017-05-01T00:43:16.385Z,7.11
2017-05-01T00:43:20.702Z,7.11
2017-05-01T00:43:25.132Z,7.11
2017-05-01T00:43:29.562Z,7.11
2017-05-01T00:43:33.997Z,7.11
2017-05-01T00:43:38.306Z,7.11
2017-05-01T00:43:42.729Z,7.11
2017-05-01T00:43:47.157Z,7.11
2017-05-01T00:43:51.590Z,7.11
2017-05-01T00:43:56.058Z,7.11
2017-05-01T00:44:00.385Z,7.11
2017-05-01T00:44:05.116Z,7.1
2017-05-01T00:44:09.339Z,7.11
2017-05-01T00:44:13.660Z,7.11
2017-05-01T00:44:17.984Z,7.11
2017-05-01T00:44:22.296Z,7.11
2017-05-01T00:44:26.778Z,7.11
2017-05-01T00:44:31.212Z,7.11
2017-05-01T00:44:35.632Z,7.1
2017-05-01T00:44:39.952Z,7.11
2017-05-01T00:44:44.267Z,7.1
2017-05-01T00:44:48.690Z,7.09
2017-05-01T00:44:53.112Z,7.1
2017-05-01T00:44:57.553Z,7.1
2017-05-01T00:45:01.995Z,7.1
2017-05-01T00:45:06.308Z,7.1
2017-05-01T00:45:10.611Z,7.1
2017-05-01T00:45:15.038Z,7.1
2017-05-01T00:45:19.269Z,7.1
2017-05-01T00:45:23.700Z,7.1
2017-05-01T00:45:28.125Z,7.1
2017-05-01T00:45:32.552Z,7.1
2017-05-01T00:45:37.001Z,7.1
2017-05-01T00:45:41.430Z,7.09
2017-05-01T00:45:45.856Z,7.11
2017-05-01T00:45:50.167Z,7.1
2017-05-01T00:45:54.604Z,7.09
2017-05-01T00:45:58.921Z,7.1
2017-05-01T00:46:03.601Z,7.1
2017-05-01T00:46:08.033Z,7.1
2017-05-01T00:46:12.233Z,7.09
2017-05-01T00:46:16.458Z,7.09
2017-05-01T00:46:20.890Z,7.09
2017-05-01T00:46:25.311Z,7.1
2017-05-01T00:46:29.754Z,7.09
2017-05-01T00:46:34.073Z,7.09
2017-05-01T00:46:38.496Z,7.09
2017-05-01T00:46:42.924Z,7.1
2017-05-01T00:46:47.243Z,7.09
2017-05-01T00:46:51.702Z,7.09
2017-05-01T00:46:56.130Z,7.09
2017-05-01T00:47:00.436Z,7.08
2017-05-01T00:47:04.745Z,7.09
2017-05-01T00:47:09.057Z,7.08
2017-05-01T00:47:13.367Z,7.09
2017-05-01T00:47:17.553Z,7.09
2017-05-01T00:47:21.979Z,7.08
2017-05-01T00:47:26.407Z,7.09
2017-05-01T00:47:30.832Z,7.08
2017-05-01T00:47:35.258Z,7.08
2017-05-01T00:47:39.567Z,7.09
2017-05-01T00:47:44.003Z,7.08
2017-05-01T00:47:48.430Z,7.08
2017-05-01T00:47:52.862Z,7.08
2017-05-01T00:47:57.306Z,7.07
2017-05-01T00:48:01.748Z,7.07
2017-05-01T00:48:06.171Z,7.08
2017-05-01T00:48:10.476Z,7.08
2017-05-01T00:48:14.444Z,7.08
2017-05-01T00:48:18.922Z,7.07
2017-05-01T00:48:23.354Z,7.08
2017-05-01T00:48:27.668Z,7.07
2017-05-01T00:48:32.108Z,7.08
2017-05-01T00:48:36.538Z,7.07
2017-05-01T00:48:40.874Z,7.07
2017-05-01T00:48:45.307Z,7.07
2017-05-01T00:48:49.736Z,7.08
2017-05-01T00:48:54.056Z,7.07
2017-05-01T00:48:58.489Z,7.07
2017-05-01T00:49:02.924Z,7.07
2017-05-01T00:49:07.367Z,7.08
2017-05-01T00:49:11.329Z,7.07
2017-05-01T00:49:15.650Z,7.07
2017-05-01T00:49:20.081Z,7.07
2017-05-01T00:49:24.509Z,7.06
2017-05-01T00:49:28.948Z,7.07
2017-05-01T00:49:33.373Z,7.06
2017-05-01T00:49:37.799Z,7.06
2017-05-01T00:49:41.990Z,7.07
2017-05-01T00:49:46.422Z,7.06
2017-05-01T00:49:50.892Z,7.06
2017-05-01T00:49:55.326Z,7.06
2017-05-01T00:49:59.757Z,7.07
2017-05-01T00:50:04.236Z,7.05
2017-05-01T00:50:08.546Z,7.05
2017-05-01T00:50:12.617Z,7.06
2017-05-01T00:50:17.044Z,7.06
2017-05-01T00:50:21.484Z,7.06
2017-05-01T00:50:25.675Z,7.05
2017-05-01T00:50:30.106Z,7.05
2017-05-01T00:50:34.530Z,7.05
2017-05-01T00:50:38.968Z,7.04
2017-05-01T00:50:43.200Z,7.05
2017-05-01T00:50:47.637Z,7.05
2017-05-01T00:50:52.063Z,7.05
2017-05-01T00:50:56.491Z,7.05
2017-05-01T00:51:00.925Z,7.05
2017-05-01T00:51:05.382Z,7.05
2017-05-01T00:51:09.818Z,7.04
2017-05-01T00:51:14.015Z,7.04
2017-05-01T00:51:18.448Z,7.04
2017-05-01T00:51:22.873Z,7.04
2017-05-01T00:51:27.191Z,7.04
2017-05-01T00:51:31.618Z,7.03
2017-05-01T00:51:36.050Z,7.03
2017-05-01T00:51:40.482Z,7.03
2017-05-01T00:51:44.795Z,7.04
2017-05-01T00:51:49.108Z,7.03
2017-05-01T00:51:53.536Z,7.02
2017-05-01T00:51:57.960Z,7.03
2017-05-01T00:52:02.305Z,7.03
2017-05-01T00:52:06.610Z,7.03
2017-05-01T00:52:10.928Z,7.03
2017-05-01T00:52:15.252Z,7.03
2017-05-01T00:52:19.719Z,7.02
2017-05-01T00:52:24.152Z,7.02
2017-05-01T00:52:28.786Z,7.02
2017-05-01T00:52:33.218Z,7.02
2017-05-01T00:52:37.686Z,7.02
2017-05-01T00:52:41.997Z,7.01
2017-05-01T00:52:46.312Z,7.01
2017-05-01T00:52:50.623Z,7.01
2017-05-01T00:52:55.073Z,7.01
2017-05-01T00:52:59.391Z,7
2017-05-01T00:53:04.025Z,7.01
2017-05-01T00:53:08.344Z,6.99
2017-05-01T00:53:12.795Z,7
2017-05-01T00:53:17.104Z,7
2017-05-01T00:53:21.545Z,7.01
2017-05-01T00:53:25.970Z,7
2017-05-01T00:53:30.402Z,7
2017-05-01T00:53:34.842Z,7
2017-05-01T00:53:39.149Z,7
2017-05-01T00:53:43.571Z,6.99
2017-05-01T00:53:47.891Z,6.99
2017-05-01T00:53:52.320Z,7
2017-05-01T00:53:56.646Z,6.99
2017-05-01T00:54:01.092Z,6.99
2017-05-01T00:54:05.536Z,6.98
2017-05-01T00:54:09.776Z,6.99
2017-05-01T00:54:14.208Z,6.98
2017-05-01T00:54:18.654Z,6.98
2017-05-01T00:54:23.084Z,6.98
2017-05-01T00:54:27.517Z,6.98
2017-05-01T00:54:31.947Z,6.98
2017-05-01T00:54:36.375Z,6.98
2017-05-01T00:54:40.805Z,6.97
2017-05-01T00:54:45.120Z,6.97
2017-05-01T00:54:49.429Z,6.97
2017-05-01T00:54:53.739Z,6.97
2017-05-01T00:54:58.224Z,6.97
2017-05-01T00:55:02.758Z,6.97
2017-05-01T00:55:07.186Z,6.97
2017-05-01T00:55:11.514Z,6.96
2017-05-01T00:55:15.720Z,6.96
2017-05-01T00:55:20.140Z,6.97
2017-05-01T00:55:24.441Z,6.96
2017-05-01T00:55:28.876Z,6.95
2017-05-01T00:55:33.314Z,6.96
2017-05-01T00:55:37.745Z,6.95
2017-05-01T00:55:42.055Z,6.95
2017-05-01T00:55:46.367Z,6.95
2017-05-01T00:55:50.827Z,6.95
2017-05-01T00:55:55.246Z,6.95
2017-05-01T00:55:59.574Z,6.94
2017-05-01T00:56:04.158Z,6.94
2017-05-01T00:56:08.478Z,6.94
2017-05-01T00:56:12.906Z,6.94
2017-05-01T00:56:17.214Z,6.94
2017-05-01T00:56:21.687Z,6.94
2017-05-01T00:56:26.117Z,6.94
2017-05-01T00:56:30.547Z,6.94
2017-05-01T00:56:34.979Z,6.93
2017-05-01T00:56:39.411Z,6.93
2017-05-01T00:56:43.720Z,6.93
2017-05-01T00:56:48.155Z,6.93
2017-05-01T00:56:52.586Z,6.93
2017-05-01T00:56:57.016Z,6.93
2017-05-01T00:57:01.441Z,6.93
2017-05-01T00:57:06.057Z,6.93
2017-05-01T00:57:10.253Z,6.93
2017-05-01T00:57:14.565Z,6.92
2017-05-01T00:57:19.000Z,6.92
2017-05-01T00:57:23.426Z,6.91
2017-05-01T00:57:27.737Z,6.92
2017-05-01T00:57:32.165Z,6.92
2017-05-01T00:57:36.593Z,6.92
2017-05-01T00:57:40.907Z,6.91
2017-05-01T00:57:45.236Z,6.91
2017-05-01T00:57:49.679Z,6.91
2017-05-01T00:57:54.132Z,6.91
2017-05-01T00:57:58.574Z,6.9
2017-05-01T00:58:03.003Z,6.9
2017-05-01T00:58:07.433Z,6.91
2017-05-01T00:58:11.629Z,6.9
2017-05-01T00:58:15.947Z,6.89
2017-05-01T00:58:20.379Z,6.9
2017-05-01T00:58:24.824Z,6.88
2017-05-01T00:58:29.268Z,6.89
2017-05-01T00:58:33.696Z,6.88
2017-05-01T00:58:38.130Z,6.89